APL Norway — A8NC4 — position and weather

sailwx.info

Track history (hours):
 
Tides and Currents Weather Stations Pressure Air Temp Water Temp Dewpoint Dewpoint Depression Visibility Wind Speed Wind Dir Waves Ship Positions

APL Norway

Last reported at 2015-May-18 19:20 UTC. Time now 2015-May-22 20:43 UTC.
Position N 35°15' W 123°27'.

Length 295 m; draft 9.8 m.

Type: Cargo ship. MMSI: 636013456.

Date/timePositionNaut miles runAvg speedWind from/ knotsBaromVisibWave heightAir tempDewpointWater temp
2015-May-18 19:20N 35°15' W 123°27'3816.9
2015-May-18 17:04N 35°01' W 122°44'2617.4
2015-May-18 15:33N 34°51' W 122°13'1816.7
2015-May-18 14:30N 34°45' W 121°54'1816.8
2015-May-18 13:27N 34°38' W 121°34'5316.9
2015-May-18 10:20N 34°22' W 120°33'12013.4
2015-May-18 01:21N 33°44' W 118°16'1 0.2
2015-May-17 23:12N 33°44' W 118°15'0 0.0
2015-May-17 22:33N 33°44' W 118°15'0 0.0
2015-May-17 21:33N 33°44' W 118°15'0 0.0
2015-May-17 20:24N 33°44' W 118°15'0 0.0
2015-May-17 19:15N 33°44' W 118°15'0 0.0
2015-May-17 18:33N 33°44' W 118°15'0 0.0
2015-May-17 17:33N 33°44' W 118°15'0 0.0
2015-May-17 16:33N 33°44' W 118°15'0 0.0
2015-May-17 15:33N 33°44' W 118°15'0 0.0
2015-May-17 09:30N 33°44' W 118°15'0 0.0
2015-May-17 08:30N 33°44' W 118°15'0 0.0
2015-May-17 07:18N 33°44' W 118°15'0 0.0
2015-May-17 05:24N 33°44' W 118°15'0 0.0
2015-May-17 02:18N 33°44' W 118°15'0 0.0
2015-May-17 01:24N 33°44' W 118°15'0 0.0
2015-May-17 00:31N 33°44' W 118°15'0 0.0
2015-May-16 23:27N 33°44' W 118°15'0 0.0
2015-May-16 22:30N 33°44' W 118°15'0 0.0
2015-May-16 21:27N 33°44' W 118°15'0 0.0
2015-May-16 20:33N 33°44' W 118°15'0 0.0
2015-May-16 19:33N 33°44' W 118°15'0 0.0
2015-May-16 18:33N 33°44' W 118°15'0 0.0
2015-May-16 17:27N 33°44' W 118°15'0 0.0
2015-May-16 14:12N 33°44' W 118°15'2 2.9
2015-May-16 13:33N 33°42' W 118°15'13 5.8
2015-May-16 11:22N 33°31' W 118°08'6 5.9
2015-May-16 10:20N 33°25' W 118°05'6 7.1
2015-May-16 09:33N 33°20' W 118°03'1111.3
2015-May-16 08:33N 33°09' W 117°59'1111.2
2015-May-16 07:33N 32°58' W 117°55'7 6.9
2015-May-16 06:33N 32°52' W 117°53'1413.8
2015-May-16 05:33N 32°38' W 117°49'1616.5
2015-May-16 04:33N 32°23' W 117°43'1616.2
2015-May-16 03:33N 32°08' W 117°35'  
Track history (hours):
 
Tides and Currents Weather Stations Pressure Air Temp Water Temp Dewpoint Dewpoint Depression Visibility Wind Speed Wind Dir Waves Ship Positions

APL Norway

Last reported at 2015-May-18 19:20 UTC. Time now 2015-May-22 20:43 UTC.
Position N 35°15' W 123°27'.

Length 295 m; draft 9.8 m.

Type: Cargo ship. MMSI: 636013456.

Date/timePositionNaut miles runAvg speedWind from/ knotsBaromVisibWave heightAir tempDewpointWater temp
2015-May-18 19:20N 35°15' W 123°27'3816.9
2015-May-18 17:04N 35°01' W 122°44'2617.4
2015-May-18 15:33N 34°51' W 122°13'1816.7
2015-May-18 14:30N 34°45' W 121°54'1816.8
2015-May-18 13:27N 34°38' W 121°34'5316.9
2015-May-18 10:20N 34°22' W 120°33'12013.4
2015-May-18 01:21N 33°44' W 118°16'1 0.2
2015-May-17 23:12N 33°44' W 118°15'0 0.0
2015-May-17 22:33N 33°44' W 118°15'0 0.0
2015-May-17 21:33N 33°44' W 118°15'0 0.0
2015-May-17 20:24N 33°44' W 118°15'0 0.0
2015-May-17 19:15N 33°44' W 118°15'0 0.0
2015-May-17 18:33N 33°44' W 118°15'0 0.0
2015-May-17 17:33N 33°44' W 118°15'0 0.0
2015-May-17 16:33N 33°44' W 118°15'0 0.0
2015-May-17 15:33N 33°44' W 118°15'0 0.0
2015-May-17 09:30N 33°44' W 118°15'0 0.0
2015-May-17 08:30N 33°44' W 118°15'0 0.0
2015-May-17 07:18N 33°44' W 118°15'0 0.0
2015-May-17 05:24N 33°44' W 118°15'0 0.0
2015-May-17 02:18N 33°44' W 118°15'0 0.0
2015-May-17 01:24N 33°44' W 118°15'0 0.0
2015-May-17 00:31N 33°44' W 118°15'0 0.0
2015-May-16 23:27N 33°44' W 118°15'0 0.0
2015-May-16 22:30N 33°44' W 118°15'0 0.0
2015-May-16 21:27N 33°44' W 118°15'0 0.0
2015-May-16 20:33N 33°44' W 118°15'0 0.0
2015-May-16 19:33N 33°44' W 118°15'0 0.0
2015-May-16 18:33N 33°44' W 118°15'0 0.0
2015-May-16 17:27N 33°44' W 118°15'0 0.0
2015-May-16 14:12N 33°44' W 118°15'2 2.9
2015-May-16 13:33N 33°42' W 118°15'13 5.8
2015-May-16 11:22N 33°31' W 118°08'6 5.9
2015-May-16 10:20N 33°25' W 118°05'6 7.1
2015-May-16 09:33N 33°20' W 118°03'1111.3
2015-May-16 08:33N 33°09' W 117°59'1111.2
2015-May-16 07:33N 32°58' W 117°55'7 6.9
2015-May-16 06:33N 32°52' W 117°53'1413.8
2015-May-16 05:33N 32°38' W 117°49'1616.5
2015-May-16 04:33N 32°23' W 117°43'1616.2
2015-May-16 03:33N 32°08' W 117°35'  

Dump ship's entire track history